Time;durP1;ratioP1;P1;durP2;ratioP2;P2;SDS_P1;SDS_P2;PMS_P1;PMS_P2;Temp;Humidity;BMP_temperature;BMP_pressure;BME280_temperature;BME280_humidity;BME280_pressure;Samples;Min_cycle;Max_cycle;Signal;HPM_P1;HPM_P2
2023/09/21 00:02:16;;;;;;;;;;;;;;;;;;5068580;28;19923;-53
2023/09/21 00:04:42;;;;;;;;;;;;;;;;;;5070861;28;19912;-52
2023/09/21 00:07:08;;;;;;;;;;;;;;;;;;5070526;28;19908;-51
2023/09/21 00:09:34;;;;;;;;;;;;;;;;;;5069830;28;19916;-51
2023/09/21 00:12:00;;;;;;;;;;;;;;;;;;5074030;28;19912;-53
2023/09/21 00:14:26;;;;;;;;;;;;;;;;;;5069848;28;19915;-51
2023/09/21 00:16:53;;;;;;;;;;;;;;;;;;5069909;28;19916;-52
2023/09/21 00:19:23;;;;;;;;;;;;;;;;;;5069409;28;19909;-54
2023/09/21 00:21:49;;;;;;;;;;;;;;;;;;5070142;28;20423;-51
2023/09/21 00:24:15;;;;;;;;;;;;;;;;;;5068049;28;20268;-52
2023/09/21 00:26:41;;;;;;;;;;;;;;;;;;5069797;28;19924;-52
2023/09/21 00:29:07;;;;;;;;;;;;;;;;;;5070285;28;19920;-52
2023/09/21 00:31:33;;;;;;;;;;;;;;;;;;5069464;28;19995;-52
2023/09/21 00:33:59;;;;;;;;;;;;;;;;;;5069459;28;20170;-51
2023/09/21 00:36:25;;;;;;;;;;;;;;;;;;5069307;28;19908;-52
2023/09/21 00:38:52;;;;;;;;;;;;;;;;;;5070099;28;20318;-55
2023/09/21 00:41:18;;;;;;;;;;;;;;;;;;5069402;28;20014;-55
2023/09/21 00:43:44;;;;;;;;;;;;;;;;;;5068217;28;19913;-55
2023/09/21 00:46:10;;;;;;;;;;;;;;;;;;5069925;28;20380;-55
2023/09/21 00:48:38;;;;;;;;;;;;;;;;;;5068704;28;19913;-55
2023/09/21 00:51:07;;;;;;;;;;;;;;;;;;5069764;28;19923;-55
2023/09/21 00:53:33;;;;;;;;;;;;;;;;;;5068960;28;19908;-55
2023/09/21 00:55:59;;;;;;;;;;;;;;;;;;5067790;28;19916;-55
2023/09/21 00:58:25;;;;;;;;;;;;;;;;;;5068899;28;20002;-55
2023/09/21 01:00:51;;;;;;;;;;;;;;;;;;5069343;28;20378;-55
2023/09/21 01:03:17;;;;;;;;;;;;;;;;;;5068543;28;19950;-55
2023/09/21 01:05:44;;;;;;;;;;;;;;;;;;5069684;28;19908;-55
2023/09/21 01:08:10;;;;;;;;;;;;;;;;;;5065639;28;19913;-55
2023/09/21 01:10:36;;;;;;;;;;;;;;;;;;5067454;28;19909;-55
2023/09/21 01:13:03;;;;;;;;;;;;;;;;;;5073368;28;19916;-52
2023/09/21 01:15:29;;;;;;;;;;;;;;;;;;5068847;28;19908;-54
2023/09/21 01:17:55;;;;;;;;;;;;;;;;;;5069036;28;20359;-52
2023/09/21 01:20:40;;;;;;;;;;;;;;;;;;5068563;28;20361;-51
2023/09/21 01:23:08;;;;;;;;;;;;;;;;;;5065998;28;19912;-51
2023/09/21 01:25:34;;;;;;;;;;;;;;;;;;5067325;28;19973;-51
2023/09/21 01:28:00;;;;;;;;;;;;;;;;;;5068848;28;19990;-51
2023/09/21 01:30:28;;;;;;;;;;;;;;;;;;5068462;28;20298;-52
2023/09/21 01:32:54;;;;;;;;;;;;;;;;;;5068856;28;19913;-51
2023/09/21 01:35:22;;;;;;;;;;;;;;;;;;5068548;28;19908;-53
2023/09/21 01:37:48;;;;;;;;;;;;;;;;;;5069177;28;19965;-52
2023/09/21 01:40:17;;;;;;;;;;;;;;;;;;5069077;28;19917;-53
2023/09/21 01:42:44;;;;;;;;;;;;;;;;;;5069212;28;19908;-51
2023/09/21 01:45:10;;;;;;;;;;;;;;;;;;5069322;28;20330;-52
2023/09/21 01:47:36;;;;;;;;;;;;;;;;;;5068346;28;19916;-52
2023/09/21 01:50:06;;;;;;;;;;;;;;;;;;5064932;28;19912;-53
2023/09/21 01:52:32;;;;;;;;;;;;;;;;;;5068399;28;19912;-53
2023/09/21 01:54:59;;;;;;;;;;;;;;;;;;5066912;28;19995;-54
2023/09/21 01:57:25;;;;;;;;;;;;;;;;;;5068428;28;19916;-54
2023/09/21 01:59:51;;;;;;;;;;;;;;;;;;5068972;28;19995;-53
2023/09/21 02:02:20;;;;;;;;;;;;;;;;;;5068717;28;19912;-53
2023/09/21 02:04:47;;;;;;;;;;;;;;;;;;5068438;28;19915;-53
2023/09/21 02:07:14;;;;;;;;;;;;;;;;;;5069084;28;19908;-53
2023/09/21 02:09:40;;;;;;;;;;;;;;;;;;5068642;28;19948;-53
2023/09/21 02:12:06;;;;;;;;;;;;;;;;;;5072976;28;19951;-53
2023/09/21 02:14:32;;;;;;;;;;;;;;;;;;5071993;28;19912;-53
2023/09/21 02:16:58;;;;;;;;;;;;;;;;;;5072783;28;20360;-53
2023/09/21 02:19:26;;;;;;;;;;;;;;;;;;5071979;28;19955;-53
2023/09/21 02:21:52;;;;;;;;;;;;;;;;;;5072399;28;19912;-53
2023/09/21 02:24:18;;;;;;;;;;;;;;;;;;5070638;28;19935;-54
2023/09/21 02:26:44;;;;;;;;;;;;;;;;;;5072323;28;19920;-54
2023/09/21 02:29:12;;;;;;;;;;;;;;;;;;5072465;28;20427;-53
2023/09/21 02:31:38;;;;;;;;;;;;;;;;;;5071940;28;19909;-52
2023/09/21 02:34:04;;;;;;;;;;;;;;;;;;5071796;28;20003;-53
2023/09/21 02:36:31;;;;;;;;;;;;;;;;;;5071528;28;20353;-53
2023/09/21 02:38:57;;;;;;;;;;;;;;;;;;5072293;28;19908;-54
2023/09/21 02:41:23;;;;;;;;;;;;;;;;;;5071497;28;19938;-54
2023/09/21 02:43:49;;;;;;;;;;;;;;;;;;5072305;28;20367;-53
2023/09/21 02:46:15;;;;;;;;;;;;;;;;;;5072531;28;19912;-53
2023/09/21 02:48:42;;;;;;;;;;;;;;;;;;5070977;28;20318;-53
2023/09/21 02:51:08;;;;;;;;;;;;;;;;;;5071804;28;19915;-53
2023/09/21 02:53:34;;;;;;;;;;;;;;;;;;5071093;28;19917;-54
2023/09/21 02:56:02;;;;;;;;;;;;;;;;;;5070222;28;19916;-52
2023/09/21 02:58:28;;;;;;;;;;;;;;;;;;5071688;28;19923;-53
2023/09/21 03:00:54;;;;;;;;;;;;;;;;;;5071791;28;19909;-54
2023/09/21 03:03:21;;;;;;;;;;;;;;;;;;5071085;28;19965;-54
2023/09/21 03:05:47;;;;;;;;;;;;;;;;;;5071720;28;20429;-53
2023/09/21 03:08:13;;;;;;;;;;;;;;;;;;5067687;28;19913;-53
2023/09/21 03:10:39;;;;;;;;;;;;;;;;;;5071040;28;19995;-53
2023/09/21 03:13:05;;;;;;;;;;;;;;;;;;5072142;28;19909;-53
2023/09/21 03:15:32;;;;;;;;;;;;;;;;;;5071123;28;19938;-53
2023/09/21 03:17:58;;;;;;;;;;;;;;;;;;5071542;28;19952;-53
2023/09/21 03:20:37;;;;;;;;;;;;;;;;;;5070633;28;19920;-53
2023/09/21 03:23:05;;;;;;;;;;;;;;;;;;5071567;28;19909;-54
2023/09/21 03:25:34;;;;;;;;;;;;;;;;;;5069019;28;20308;-53
2023/09/21 03:28:00;;;;;;;;;;;;;;;;;;5071031;28;20023;-53
2023/09/21 03:30:27;;;;;;;;;;;;;;;;;;5070664;28;20260;-54
2023/09/21 03:32:52;;;;;;;;;;;;;;;;;;5067241;28;19916;-53
2023/09/21 03:35:18;;;;;;;;;;;;;;;;;;5070983;28;19917;-53
2023/09/21 03:37:50;;;;;;;;;;;;;;;;;;5070604;28;20371;-53
2023/09/21 03:40:17;;;;;;;;;;;;;;;;;;5070944;28;19909;-53
2023/09/21 03:42:43;;;;;;;;;;;;;;;;;;5070474;28;19913;-53
2023/09/21 03:45:10;;;;;;;;;;;;;;;;;;5070814;28;19916;-53
2023/09/21 03:47:36;;;;;;;;;;;;;;;;;;5070248;28;19989;-53
2023/09/21 03:50:03;;;;;;;;;;;;;;;;;;5070410;28;19912;-53
2023/09/21 03:52:29;;;;;;;;;;;;;;;;;;5070234;28;20037;-53
2023/09/21 03:54:55;;;;;;;;;;;;;;;;;;5068689;28;20384;-53
2023/09/21 03:57:21;;;;;;;;;;;;;;;;;;5071087;28;19916;-52
2023/09/21 03:59:47;;;;;;;;;;;;;;;;;;5069910;28;20386;-53
2023/09/21 04:02:13;;;;;;;;;;;;;;;;;;5070088;28;20003;-53
2023/09/21 04:04:39;;;;;;;;;;;;;;;;;;5069708;28;19954;-53
2023/09/21 04:07:06;;;;;;;;;;;;;;;;;;5068413;28;19965;-54
2023/09/21 04:09:32;;;;;;;;;;;;;;;;;;5069044;28;19960;-55
2023/09/21 04:12:00;;;;;;;;;;;;;;;;;;5070280;28;20003;-55
2023/09/21 04:14:27;;;;;;;;;;;;;;;;;;5066339;28;19955;-54
2023/09/21 04:16:55;;;;;;;;;;;;;;;;;;5070185;28;20268;-53
2023/09/21 04:19:22;;;;;;;;;;;;;;;;;;5072357;28;19913;-52
2023/09/21 04:21:48;;;;;;;;;;;;;;;;;;5072093;28;19916;-53
2023/09/21 04:24:14;;;;;;;;;;;;;;;;;;5071907;28;19927;-54
2023/09/21 04:26:40;;;;;;;;;;;;;;;;;;5067096;28;20272;-53
2023/09/21 04:29:07;;;;;;;;;;;;;;;;;;5067430;28;20272;-53
2023/09/21 04:31:33;;;;;;;;;;;;;;;;;;5064571;28;19908;-52
2023/09/21 04:33:58;;;;;;;;;;;;;;;;;;5067390;28;19908;-53
2023/09/21 04:36:24;;;;;;;;;;;;;;;;;;5064385;28;20318;-54
2023/09/21 04:38:51;;;;;;;;;;;;;;;;;;5067291;28;19915;-52
2023/09/21 04:41:16;;;;;;;;;;;;;;;;;;5065313;28;19915;-52
2023/09/21 04:43:42;;;;;;;;;;;;;;;;;;5069065;28;20279;-52
2023/09/21 04:46:09;;;;;;;;;;;;;;;;;;5069128;28;19916;-53
2023/09/21 04:48:36;;;;;;;;;;;;;;;;;;5066756;28;20241;-55
2023/09/21 04:51:02;;;;;;;;;;;;;;;;;;5065102;28;19922;-53
2023/09/21 04:53:28;;;;;;;;;;;;;;;;;;5066546;28;19912;-53
2023/09/21 04:55:54;;;;;;;;;;;;;;;;;;5066735;28;19916;-53
2023/09/21 04:58:23;;;;;;;;;;;;;;;;;;5066596;28;19923;-52
2023/09/21 05:00:49;;;;;;;;;;;;;;;;;;5064676;28;20292;-53
2023/09/21 05:03:15;;;;;;;;;;;;;;;;;;5067575;28;20190;-53
2023/09/21 05:05:41;;;;;;;;;;;;;;;;;;5067857;28;19924;-53
2023/09/21 05:08:09;;;;;;;;;;;;;;;;;;5067023;28;20011;-54
2023/09/21 05:10:35;;;;;;;;;;;;;;;;;;5064889;28;19924;-52
2023/09/21 05:13:00;;;;;;;;;;;;;;;;;;5069097;28;19910;-54
2023/09/21 05:15:26;;;;;;;;;;;;;;;;;;5064052;28;20316;-54
2023/09/21 05:17:52;;;;;;;;;;;;;;;;;;5069110;28;20360;-54
2023/09/21 05:20:18;;;;;;;;;;;;;;;;;;5065531;28;19919;-55
2023/09/21 05:22:44;;;;;;;;;;;;;;;;;;5065946;28;19909;-56
2023/09/21 05:25:10;;;;;;;;;;;;;;;;;;5067017;28;19917;-55
2023/09/21 05:27:36;;;;;;;;;;;;;;;;;;5068265;28;20364;-55
2023/09/21 05:30:04;;;;;;;;;;;;;;;;;;5068230;28;19917;-55
2023/09/21 05:32:32;;;;;;;;;;;;;;;;;;5062923;28;20000;-55
2023/09/21 05:34:58;;;;;;;;;;;;;;;;;;5066277;28;19999;-55
2023/09/21 05:37:24;;;;;;;;;;;;;;;;;;5067804;28;19943;-55
2023/09/21 05:39:50;;;;;;;;;;;;;;;;;;5068620;28;20283;-55
2023/09/21 05:42:16;;;;;;;;;;;;;;;;;;5069894;28;19916;-54
2023/09/21 05:44:42;;;;;;;;;;;;;;;;;;5071148;28;19920;-55
2023/09/21 05:47:08;;;;;;;;;;;;;;;;;;5074634;28;19919;-55
2023/09/21 05:49:36;;;;;;;;;;;;;;;;;;5073349;28;19920;-55
2023/09/21 05:52:08;;;;;;;;;;;;;;;;;;5071062;28;19915;-55
2023/09/21 05:54:35;;;;;;;;;;;;;;;;;;5071168;28;19921;-55
2023/09/21 05:57:02;;;;;;;;;;;;;;;;;;5078233;28;19924;-55
2023/09/21 05:59:31;;;;;;;;;;;;;;;;;;5072247;28;19912;-55
2023/09/21 06:01:57;;;;;;;;;;;;;;;;;;5073885;28;19909;-55
2023/09/21 06:04:24;;;;;;;;;;;;;;;;;;5074022;28;20314;-55
2023/09/21 06:06:51;;;;;;;;;;;;;;;;;;5073537;28;19908;-55
2023/09/21 06:09:20;;;;;;;;;;;;;;;;;;5073367;28;19917;-55
2023/09/21 06:11:46;;;;;;;;;;;;;;;;;;5074679;28;19909;-55
2023/09/21 06:14:12;;;;;;;;;;;;;;;;;;5074051;28;20298;-55
2023/09/21 06:16:38;;;;;;;;;;;;;;;;;;5073286;28;20037;-56
2023/09/21 06:19:04;;;;;;;;;;;;;;;;;;5072607;28;19955;-55
2023/09/21 06:21:30;;;;;;;;;;;;;;;;;;5073542;28;20288;-56
2023/09/21 06:23:56;;;;;;;;;;;;;;;;;;5074192;28;20399;-56
2023/09/21 06:26:22;;;;;;;;;;;;;;;;;;5071581;28;20000;-55
2023/09/21 06:28:48;;;;;;;;;;;;;;;;;;5073249;28;20283;-52
2023/09/21 06:31:14;;;;;;;;;;;;;;;;;;5073879;28;19908;-54
2023/09/21 06:33:40;;;;;;;;;;;;;;;;;;5073387;28;20291;-53
2023/09/21 06:36:08;;;;;;;;;;;;;;;;;;5073799;28;19912;-54
2023/09/21 06:38:34;;;;;;;;;;;;;;;;;;5068549;28;19916;-53
2023/09/21 06:41:00;;;;;;;;;;;;;;;;;;5073678;28;20015;-53
2023/09/21 06:43:29;;;;;;;;;;;;;;;;;;5073878;28;19924;-54
2023/09/21 06:45:55;;;;;;;;;;;;;;;;;;5072991;28;19912;-53
2023/09/21 06:48:21;;;;;;;;;;;;;;;;;;5073324;28;19913;-53
2023/09/21 06:50:47;;;;;;;;;;;;;;;;;;5072686;28;19920;-54
2023/09/21 06:53:14;;;;;;;;;;;;;;;;;;5073815;28;19919;-53
2023/09/21 06:55:40;;;;;;;;;;;;;;;;;;5070195;28;20359;-52
2023/09/21 06:58:08;;;;;;;;;;;;;;;;;;5073480;28;19921;-53
2023/09/21 07:00:36;;;;;;;;;;;;;;;;;;5072847;28;19919;-53
2023/09/21 07:03:01;;;;;;;;;;;;;;;;;;5073321;28;20463;-53
2023/09/21 07:05:28;;;;;;;;;;;;;;;;;;5073051;28;19909;-53
2023/09/21 07:07:54;;;;;;;;;;;;;;;;;;5072848;28;19919;-53
2023/09/21 07:10:19;;;;;;;;;;;;;;;;;;5073397;28;20261;-54
2023/09/21 07:12:45;;;;;;;;;;;;;;;;;;5073906;28;19913;-53
2023/09/21 07:15:12;;;;;;;;;;;;;;;;;;5073391;28;19978;-53
2023/09/21 07:17:38;;;;;;;;;;;;;;;;;;5068871;28;19952;-53
2023/09/21 07:20:07;;;;;;;;;;;;;;;;;;5073286;28;19940;-53
2023/09/21 07:22:33;;;;;;;;;;;;;;;;;;5072327;28;19958;-54
2023/09/21 07:24:59;;;;;;;;;;;;;;;;;;5070937;28;19908;-54
2023/09/21 07:27:25;;;;;;;;;;;;;;;;;;5072516;28;19971;-53
2023/09/21 07:29:56;;;;;;;;;;;;;;;;;;5072379;28;19958;-53
2023/09/21 07:32:23;;;;;;;;;;;;;;;;;;5072881;28;19912;-54
2023/09/21 07:34:49;;;;;;;;;;;;;;;;;;5072408;28;19954;-53
2023/09/21 07:37:16;;;;;;;;;;;;;;;;;;5072986;28;20284;-53
2023/09/21 07:39:41;;;;;;;;;;;;;;;;;;5072250;28;19912;-53
2023/09/21 07:42:07;;;;;;;;;;;;;;;;;;5072345;28;19909;-52
2023/09/21 07:44:33;;;;;;;;;;;;;;;;;;5072044;28;19920;-54
2023/09/21 07:46:59;;;;;;;;;;;;;;;;;;5072439;28;19995;-52
2023/09/21 07:49:25;;;;;;;;;;;;;;;;;;5072083;28;19967;-52
2023/09/21 07:51:51;;;;;;;;;;;;;;;;;;5071617;28;20045;-52
2023/09/21 07:54:17;;;;;;;;;;;;;;;;;;5070381;28;19913;-52
2023/09/21 07:56:43;;;;;;;;;;;;;;;;;;5067904;28;19921;-52
2023/09/21 07:59:11;;;;;;;;;;;;;;;;;;5072103;28;19933;-52
2023/09/21 08:01:37;;;;;;;;;;;;;;;;;;5071487;28;19913;-52
2023/09/21 08:04:03;;;;;;;;;;;;;;;;;;5072183;28;19919;-52
2023/09/21 08:06:29;;;;;;;;;;;;;;;;;;5068070;28;20360;-53
2023/09/21 08:08:55;;;;;;;;;;;;;;;;;;5070455;28;19921;-52
2023/09/21 08:11:21;;;;;;;;;;;;;;;;;;5073526;28;19935;-52
2023/09/21 08:13:47;;;;;;;;;;;;;;;;;;5071447;28;19994;-53
2023/09/21 08:16:13;;;;;;;;;;;;;;;;;;5071960;28;20325;-52
2023/09/21 08:18:39;;;;;;;;;;;;;;;;;;5071291;28;20383;-52
2023/09/21 08:21:05;;;;;;;;;;;;;;;;;;5071971;28;19938;-52
2023/09/21 08:23:31;;;;;;;;;;;;;;;;;;5071711;28;19912;-53
2023/09/21 08:25:57;;;;;;;;;;;;;;;;;;5069314;28;19912;-52
2023/09/21 08:28:24;;;;;;;;;;;;;;;;;;5071288;28;20012;-52
2023/09/21 08:30:50;;;;;;;;;;;;;;;;;;5070937;28;19908;-52
2023/09/21 08:33:17;;;;;;;;;;;;;;;;;;5071539;28;19999;-52
2023/09/21 08:35:46;;;;;;;;;;;;;;;;;;5071139;28;20390;-52
2023/09/21 08:38:12;;;;;;;;;;;;;;;;;;5071406;28;19908;-52
2023/09/21 08:40:37;;;;;;;;;;;;;;;;;;5070858;28;20035;-53
2023/09/21 08:43:04;;;;;;;;;;;;;;;;;;5071272;28;20279;-52
2023/09/21 08:45:30;;;;;;;;;;;;;;;;;;5071055;28;19913;-53
2023/09/21 08:47:56;;;;;;;;;;;;;;;;;;5070468;28;19989;-52
2023/09/21 08:50:22;;;;;;;;;;;;;;;;;;5071140;28;19909;-55
2023/09/21 08:52:48;;;;;;;;;;;;;;;;;;5070769;28;20367;-55
2023/09/21 08:55:14;;;;;;;;;;;;;;;;;;5069238;28;19962;-55
2023/09/21 08:57:40;;;;;;;;;;;;;;;;;;5066889;28;20027;-55
2023/09/21 09:00:08;;;;;;;;;;;;;;;;;;5071118;28;20020;-56
2023/09/21 09:02:35;;;;;;;;;;;;;;;;;;5071035;28;20509;-55
2023/09/21 09:05:01;;;;;;;;;;;;;;;;;;5070655;28;19912;-56
2023/09/21 09:07:27;;;;;;;;;;;;;;;;;;5067242;28;19920;-55
2023/09/21 09:09:53;;;;;;;;;;;;;;;;;;5070581;28;19909;-55
2023/09/21 09:12:19;;;;;;;;;;;;;;;;;;5072647;28;20268;-55
2023/09/21 09:14:45;;;;;;;;;;;;;;;;;;5070213;28;19946;-55
2023/09/21 09:17:11;;;;;;;;;;;;;;;;;;5070988;28;20372;-55
2023/09/21 09:19:37;;;;;;;;;;;;;;;;;;5070330;28;19908;-56
2023/09/21 09:22:03;;;;;;;;;;;;;;;;;;5071080;28;19912;-55
2023/09/21 09:24:30;;;;;;;;;;;;;;;;;;5069046;28;20132;-55
2023/09/21 09:26:57;;;;;;;;;;;;;;;;;;5070213;28;20007;-55
2023/09/21 09:29:25;;;;;;;;;;;;;;;;;;5070051;28;20329;-55
2023/09/21 09:31:51;;;;;;;;;;;;;;;;;;5068822;28;20409;-55
2023/09/21 09:34:18;;;;;;;;;;;;;;;;;;5070469;28;19948;-55
2023/09/21 09:36:45;;;;;;;;;;;;;;;;;;5070122;28;19962;-55
2023/09/21 09:39:14;;;;;;;;;;;;;;;;;;5070968;28;20359;-55
2023/09/21 09:41:40;;;;;;;;;;;;;;;;;;5070305;28;19918;-55
2023/09/21 09:44:06;;;;;;;;;;;;;;;;;;5070435;28;19908;-55
2023/09/21 09:46:33;;;;;;;;;;;;;;;;;;5066934;28;20260;-55
2023/09/21 09:49:01;;;;;;;;;;;;;;;;;;5069998;28;19923;-55
2023/09/21 09:51:27;;;;;;;;;;;;;;;;;;5070568;28;19909;-55
2023/09/21 09:53:53;;;;;;;;;;;;;;;;;;5069960;28;19916;-55
2023/09/21 09:56:19;;;;;;;;;;;;;;;;;;5065032;28;19913;-55
2023/09/21 09:58:47;;;;;;;;;;;;;;;;;;5070470;28;20417;-55
2023/09/21 10:01:14;;;;;;;;;;;;;;;;;;5070711;28;19913;-54
2023/09/21 10:03:40;;;;;;;;;;;;;;;;;;5070439;28;20379;-53
2023/09/21 10:06:09;;;;;;;;;;;;;;;;;;5070156;28;19916;-54
2023/09/21 10:08:38;;;;;;;;;;;;;;;;;;5070539;28;20291;-54
2023/09/21 10:11:05;;;;;;;;;;;;;;;;;;5071754;28;20283;-53
2023/09/21 10:13:30;;;;;;;;;;;;;;;;;;5070471;28;19999;-53
2023/09/21 10:15:57;;;;;;;;;;;;;;;;;;5069628;28;19965;-53
2023/09/21 10:18:23;;;;;;;;;;;;;;;;;;5070624;28;19908;-53
2023/09/21 10:20:49;;;;;;;;;;;;;;;;;;5069560;28;20356;-54
2023/09/21 10:23:18;;;;;;;;;;;;;;;;;;5070095;28;19977;-54
2023/09/21 10:25:44;;;;;;;;;;;;;;;;;;5068402;28;20318;-54
2023/09/21 10:28:10;;;;;;;;;;;;;;;;;;5069692;28;19956;-55
2023/09/21 10:30:37;;;;;;;;;;;;;;;;;;5071064;28;19990;-53
2023/09/21 10:33:04;;;;;;;;;;;;;;;;;;5073162;28;19913;-54
2023/09/21 10:35:30;;;;;;;;;;;;;;;;;;5073653;28;19913;-54
2023/09/21 10:37:56;;;;;;;;;;;;;;;;;;5073343;28;19915;-53
2023/09/21 10:40:26;;;;;;;;;;;;;;;;;;5073684;28;19951;-53
2023/09/21 10:42:52;;;;;;;;;;;;;;;;;;5069899;28;20295;-54
2023/09/21 10:45:18;;;;;;;;;;;;;;;;;;5073468;28;20117;-54
2023/09/21 10:47:44;;;;;;;;;;;;;;;;;;5072902;28;19939;-54
2023/09/21 10:50:10;;;;;;;;;;;;;;;;;;5073605;28;19913;-53
2023/09/21 10:52:36;;;;;;;;;;;;;;;;;;5073420;28;19909;-53
2023/09/21 10:55:02;;;;;;;;;;;;;;;;;;5070890;28;19936;-53
2023/09/21 10:57:28;;;;;;;;;;;;;;;;;;5073876;28;19913;-53
2023/09/21 10:59:55;;;;;;;;;;;;;;;;;;5072683;28;19913;-54
2023/09/21 11:02:21;;;;;;;;;;;;;;;;;;5073204;28;19909;-53
2023/09/21 11:04:47;;;;;;;;;;;;;;;;;;5072837;28;20274;-53
2023/09/21 11:07:13;;;;;;;;;;;;;;;;;;5073748;28;19912;-54
2023/09/21 11:09:40;;;;;;;;;;;;;;;;;;5073256;28;19916;-53
2023/09/21 11:12:08;;;;;;;;;;;;;;;;;;5074805;28;19919;-54
2023/09/21 11:14:34;;;;;;;;;;;;;;;;;;5072990;28;19923;-53
2023/09/21 11:17:00;;;;;;;;;;;;;;;;;;5071854;28;19913;-53
2023/09/21 11:19:26;;;;;;;;;;;;;;;;;;5072786;28;20007;-54
2023/09/21 11:21:52;;;;;;;;;;;;;;;;;;5072244;28;20320;-53
2023/09/21 11:24:18;;;;;;;;;;;;;;;;;;5071012;28;20394;-54
2023/09/21 11:26:44;;;;;;;;;;;;;;;;;;5072391;28;19912;-55
2023/09/21 11:29:11;;;;;;;;;;;;;;;;;;5072768;28;19964;-53
2023/09/21 11:31:37;;;;;;;;;;;;;;;;;;5072786;28;20003;-54
2023/09/21 11:34:05;;;;;;;;;;;;;;;;;;5072104;28;20001;-54
2023/09/21 11:36:31;;;;;;;;;;;;;;;;;;5072669;28;19919;-53
2023/09/21 11:38:56;;;;;;;;;;;;;;;;;;5072325;28;20304;-55
2023/09/21 11:41:23;;;;;;;;;;;;;;;;;;5072301;28;20318;-53
2023/09/21 11:43:49;;;;;;;;;;;;;;;;;;5068412;28;20249;-53
2023/09/21 11:46:15;;;;;;;;;;;;;;;;;;5072467;28;19942;-54
2023/09/21 11:48:43;;;;;;;;;;;;;;;;;;5072230;28;19955;-53
2023/09/21 11:51:10;;;;;;;;;;;;;;;;;;5071673;28;19909;-53
2023/09/21 11:53:36;;;;;;;;;;;;;;;;;;5068892;28;20356;-53
2023/09/21 11:56:02;;;;;;;;;;;;;;;;;;5069687;28;19961;-54
2023/09/21 11:58:29;;;;;;;;;;;;;;;;;;5072708;28;19924;-54
2023/09/21 12:01:19;;;;;;;;;;;;;;;;;;5071748;28;20004;-55
2023/09/21 12:03:45;;;;;;;;;;;;;;;;;;5071850;28;20377;-54
2023/09/21 12:06:12;;;;;;;;;;;;;;;;;;5071861;28;19938;-53
2023/09/21 12:08:38;;;;;;;;;;;;;;;;;;5072386;28;20371;-53
2023/09/21 12:11:04;;;;;;;;;;;;;;;;;;5073212;28;19912;-54
2023/09/21 12:13:30;;;;;;;;;;;;;;;;;;5072800;28;19915;-54
2023/09/21 12:15:58;;;;;;;;;;;;;;;;;;5071490;28;19909;-53
2023/09/21 12:18:26;;;;;;;;;;;;;;;;;;5072026;28;19912;-54
2023/09/21 12:20:56;;;;;;;;;;;;;;;;;;5071244;28;19912;-52
2023/09/21 12:23:22;;;;;;;;;;;;;;;;;;5068159;28;19908;-52
2023/09/21 12:25:48;;;;;;;;;;;;;;;;;;5069200;28;19909;-52
2023/09/21 12:28:14;;;;;;;;;;;;;;;;;;5071483;28;19920;-52
2023/09/21 12:30:42;;;;;;;;;;;;;;;;;;5071510;28;19928;-54
2023/09/21 12:33:08;;;;;;;;;;;;;;;;;;5070076;28;19914;-52
2023/09/21 12:35:35;;;;;;;;;;;;;;;;;;5071469;28;20329;-53
2023/09/21 12:38:00;;;;;;;;;;;;;;;;;;5071271;28;19967;-52
2023/09/21 12:40:27;;;;;;;;;;;;;;;;;;5071317;28;19958;-54
2023/09/21 12:42:53;;;;;;;;;;;;;;;;;;5071163;28;19909;-52
2023/09/21 12:45:21;;;;;;;;;;;;;;;;;;5071476;28;20249;-52
2023/09/21 12:47:47;;;;;;;;;;;;;;;;;;5070837;28;20464;-53
2023/09/21 12:50:13;;;;;;;;;;;;;;;;;;5070527;28;19909;-54
2023/09/21 12:52:42;;;;;;;;;;;;;;;;;;5071262;28;19927;-54
2023/09/21 12:55:08;;;;;;;;;;;;;;;;;;5066428;28;19912;-54
2023/09/21 12:57:36;;;;;;;;;;;;;;;;;;5071059;28;19916;-53
2023/09/21 13:00:11;;;;;;;;;;;;;;;;;;5070517;28;19978;-54
2023/09/21 13:02:37;;;;;;;;;;;;;;;;;;5071148;28;20372;-53
2023/09/21 13:05:03;;;;;;;;;;;;;;;;;;5070058;28;19920;-54
2023/09/21 13:07:29;;;;;;;;;;;;;;;;;;5070957;28;20391;-54
2023/09/21 13:09:55;;;;;;;;;;;;;;;;;;5070292;28;20425;-53
2023/09/21 13:12:21;;;;;;;;;;;;;;;;;;5073972;28;19962;-54
2023/09/21 13:14:46;;;;;;;;;;;;;;;;;;5070536;28;20420;-53
2023/09/21 13:17:13;;;;;;;;;;;;;;;;;;5070742;28;19920;-54
2023/09/21 13:19:39;;;;;;;;;;;;;;;;;;5066883;28;19908;-53
2023/09/21 13:22:05;;;;;;;;;;;;;;;;;;5070303;28;19924;-54
2023/09/21 13:24:31;;;;;;;;;;;;;;;;;;5068938;28;20125;-54
2023/09/21 13:26:57;;;;;;;;;;;;;;;;;;5069886;28;19924;-54
2023/09/21 13:29:23;;;;;;;;;;;;;;;;;;5070955;28;20026;-54
2023/09/21 13:31:48;;;;;;;;;;;;;;;;;;5070059;28;19909;-54
2023/09/21 13:34:14;;;;;;;;;;;;;;;;;;5070526;28;19920;-54
2023/09/21 13:36:40;;;;;;;;;;;;;;;;;;5070798;28;19935;-53
2023/09/21 13:39:08;;;;;;;;;;;;;;;;;;5070463;28;19947;-53
2023/09/21 13:41:34;;;;;;;;;;;;;;;;;;5070441;28;19916;-54
2023/09/21 13:44:00;;;;;;;;;;;;;;;;;;5070115;28;20378;-53
2023/09/21 13:46:25;;;;;;;;;;;;;;;;;;5070449;28;19916;-54
2023/09/21 13:48:51;;;;;;;;;;;;;;;;;;5070237;28;19912;-53
2023/09/21 13:51:18;;;;;;;;;;;;;;;;;;5070448;28;19958;-53
2023/09/21 13:53:44;;;;;;;;;;;;;;;;;;5070407;28;19912;-53
2023/09/21 13:56:11;;;;;;;;;;;;;;;;;;5068554;28;19915;-53
2023/09/21 13:58:38;;;;;;;;;;;;;;;;;;5070927;28;19938;-53
2023/09/21 14:01:03;;;;;;;;;;;;;;;;;;5069796;28;19919;-54
2023/09/21 14:03:31;;;;;;;;;;;;;;;;;;5070509;28;19991;-53
2023/09/21 14:05:56;;;;;;;;;;;;;;;;;;5072236;28;19921;-53
2023/09/21 14:08:22;;;;;;;;;;;;;;;;;;5074581;28;19965;-54
2023/09/21 14:10:49;;;;;;;;;;;;;;;;;;5073655;28;20416;-54
2023/09/21 14:13:15;;;;;;;;;;;;;;;;;;5077590;28;19959;-53
2023/09/21 14:15:41;;;;;;;;;;;;;;;;;;5074317;28;19913;-53
2023/09/21 14:18:07;;;;;;;;;;;;;;;;;;5073177;28;19909;-54
2023/09/21 14:20:33;;;;;;;;;;;;;;;;;;5074212;28;19919;-54
2023/09/21 14:22:59;;;;;;;;;;;;;;;;;;5073311;28;19909;-53
2023/09/21 14:25:25;;;;;;;;;;;;;;;;;;5072207;28;19916;-55
2023/09/21 14:27:51;;;;;;;;;;;;;;;;;;5073081;28;19974;-53
2023/09/21 14:30:18;;;;;;;;;;;;;;;;;;5074207;28;19913;-54
2023/09/21 14:32:44;;;;;;;;;;;;;;;;;;5070325;28;19919;-53
2023/09/21 14:35:10;;;;;;;;;;;;;;;;;;5073771;28;19912;-54
2023/09/21 14:37:37;;;;;;;;;;;;;;;;;;5073616;28;19913;-54
2023/09/21 14:40:05;;;;;;;;;;;;;;;;;;5073453;28;20322;-53
2023/09/21 14:42:31;;;;;;;;;;;;;;;;;;5070130;28;19909;-54
2023/09/21 14:44:57;;;;;;;;;;;;;;;;;;5072795;28;19912;-53
2023/09/21 14:47:26;;;;;;;;;;;;;;;;;;5073474;28;19932;-54
2023/09/21 14:49:53;;;;;;;;;;;;;;;;;;5072800;28;19948;-54
2023/09/21 14:52:19;;;;;;;;;;;;;;;;;;5073599;28;20325;-54
2023/09/21 14:54:45;;;;;;;;;;;;;;;;;;5071621;28;19912;-56
2023/09/21 14:57:11;;;;;;;;;;;;;;;;;;5073556;28;20244;-54
2023/09/21 14:59:39;;;;;;;;;;;;;;;;;;5073739;28;20002;-54
2023/09/21 15:02:05;;;;;;;;;;;;;;;;;;5073014;28;19966;-53
2023/09/21 15:04:31;;;;;;;;;;;;;;;;;;5073192;28;19916;-54
2023/09/21 15:06:57;;;;;;;;;;;;;;;;;;5072757;28;19912;-53
2023/09/21 15:09:23;;;;;;;;;;;;;;;;;;5073078;28;20723;-54
2023/09/21 15:11:49;;;;;;;;;;;;;;;;;;5075813;28;19916;-54
2023/09/21 15:14:15;;;;;;;;;;;;;;;;;;5073253;28;20569;-54
2023/09/21 15:16:41;;;;;;;;;;;;;;;;;;5072282;28;19908;-54
2023/09/21 15:19:07;;;;;;;;;;;;;;;;;;5072458;28;19961;-53
2023/09/21 15:21:33;;;;;;;;;;;;;;;;;;5072659;28;19912;-54
2023/09/21 15:23:59;;;;;;;;;;;;;;;;;;5072230;28;19909;-54
2023/09/21 15:26:25;;;;;;;;;;;;;;;;;;5070809;28;19919;-54
2023/09/21 15:28:51;;;;;;;;;;;;;;;;;;5072200;28;19935;-54
2023/09/21 15:31:17;;;;;;;;;;;;;;;;;;5073089;28;19909;-54
2023/09/21 15:33:43;;;;;;;;;;;;;;;;;;5072700;28;19998;-55
2023/09/21 15:36:09;;;;;;;;;;;;;;;;;;5072104;28;19970;-54
2023/09/21 15:38:35;;;;;;;;;;;;;;;;;;5072514;28;20271;-54
2023/09/21 15:41:01;;;;;;;;;;;;;;;;;;5072168;28;20402;-53
2023/09/21 15:43:27;;;;;;;;;;;;;;;;;;5069053;28;20355;-54
2023/09/21 15:45:53;;;;;;;;;;;;;;;;;;5072341;28;20286;-53
2023/09/21 15:48:18;;;;;;;;;;;;;;;;;;5071080;28;19920;-53
2023/09/21 15:50:44;;;;;;;;;;;;;;;;;;5072432;28;19935;-56
2023/09/21 15:53:10;;;;;;;;;;;;;;;;;;5071494;28;19955;-56
2023/09/21 15:55:36;;;;;;;;;;;;;;;;;;5070381;28;19909;-56
2023/09/21 15:58:02;;;;;;;;;;;;;;;;;;5072043;28;19978;-56
2023/09/21 16:00:30;;;;;;;;;;;;;;;;;;5072577;28;19923;-55
2023/09/21 16:02:55;;;;;;;;;;;;;;;;;;5071338;28;19935;-55
2023/09/21 16:05:21;;;;;;;;;;;;;;;;;;5072466;28;19909;-55
2023/09/21 16:07:47;;;;;;;;;;;;;;;;;;5070720;28;20399;-55
2023/09/21 16:10:13;;;;;;;;;;;;;;;;;;5075378;28;19934;-55
2023/09/21 16:12:39;;;;;;;;;;;;;;;;;;5073730;28;20315;-55
2023/09/21 16:15:06;;;;;;;;;;;;;;;;;;5066300;28;19912;-55
2023/09/21 16:17:32;;;;;;;;;;;;;;;;;;5070564;28;19908;-56
2023/09/21 16:19:58;;;;;;;;;;;;;;;;;;5069202;28;19909;-55
2023/09/21 16:22:24;;;;;;;;;;;;;;;;;;5073161;28;19913;-56
2023/09/21 16:24:50;;;;;;;;;;;;;;;;;;5067637;28;19958;-55
2023/09/21 16:27:15;;;;;;;;;;;;;;;;;;5069046;28;19999;-56
2023/09/21 16:29:41;;;;;;;;;;;;;;;;;;5069177;28;19948;-55
2023/09/21 16:32:10;;;;;;;;;;;;;;;;;;5069180;28;20291;-55
2023/09/21 16:34:36;;;;;;;;;;;;;;;;;;5069405;28;19913;-56
2023/09/21 16:37:02;;;;;;;;;;;;;;;;;;5068147;28;20288;-56
2023/09/21 16:39:28;;;;;;;;;;;;;;;;;;5071545;28;19991;-56
2023/09/21 16:41:54;;;;;;;;;;;;;;;;;;5071722;28;19940;-55